Time;durP1;ratioP1;P1;durP2;ratioP2;P2;SDS_P1;SDS_P2;PMS_P1;PMS_P2;Temp;Humidity;BMP_temperature;BMP_pressure;BME280_temperature;BME280_humidity;BME280_pressure;Samples;Min_cycle;Max_cycle;Signal;HPM_P1;HPM_P2
2022/12/24 20:31:27;;;;;;;93.30;53.53;;;3.60;99.90;;;;;;5128919;27;20575;-73
2022/12/24 20:33:57;;;;;;;116.67;58.17;;;3.70;99.90;;;;;;5129579;27;20688;-78
2022/12/24 20:36:27;;;;;;;277.87;118.77;;;3.10;99.90;;;;;;5129570;27;20744;-81
2022/12/24 20:38:57;;;;;;;229.33;111.67;;;2.60;99.90;;;;;;5128421;28;20289;-78
2022/12/24 20:41:28;;;;;;;225.63;109.93;;;2.30;99.90;;;;;;5129678;27;20187;-80
2022/12/24 20:43:58;;;;;;;129.37;69.13;;;2.20;99.90;;;;;;5129551;27;20187;-80
2022/12/24 20:46:29;;;;;;;99.17;56.07;;;2.00;99.90;;;;;;5115595;27;20203;-79
2022/12/24 20:48:58;;;;;;;113.13;60.70;;;2.00;99.90;;;;;;5129141;27;20219;-80
2022/12/24 20:51:28;;;;;;;130.50;65.10;;;2.00;99.90;;;;;;5121175;27;20691;-80
2022/12/24 20:53:59;;;;;;;106.70;57.97;;;2.00;99.90;;;;;;5107762;28;20223;-79
2022/12/24 20:56:29;;;;;;;92.80;50.03;;;2.00;99.90;;;;;;5108784;28;20223;-80
2022/12/24 20:58:59;;;;;;;83.33;46.07;;;1.90;99.90;;;;;;5119903;28;20533;-81
2022/12/24 21:01:30;;;;;;;79.07;44.67;;;1.70;99.90;;;;;;5128687;27;20199;-81
2022/12/24 21:04:04;;;;;;;78.03;42.80;;;1.70;99.90;;;;;;5129300;27;20198;-81
2022/12/24 21:06:35;;;;;;;75.90;43.30;;;1.80;99.90;;;;;;5129033;27;20203;-81
2022/12/24 21:09:05;;;;;;;71.93;43.67;;;1.90;99.90;;;;;;5128977;27;20194;-80
2022/12/24 21:14:22;;;;;;;98.60;53.57;;;1.90;99.90;;;;;;5128577;27;20313;-80
2022/12/24 21:16:55;;;;;;;81.77;47.30;;;1.70;99.90;;;;;;5128065;27;20664;-81
2022/12/24 21:19:25;;;;;;;81.70;46.07;;;1.60;99.90;;;;;;5123015;27;20204;-80
2022/12/24 21:21:55;;;;;;;77.30;44.00;;;1.60;99.90;;;;;;5125020;28;20668;-82
2022/12/24 21:24:24;;;;;;;78.60;41.37;;;1.70;99.90;;;;;;5129148;27;20256;-79
2022/12/24 21:26:53;;;;;;;66.47;39.60;;;1.70;99.90;;;;;;5128899;27;20201;-82
2022/12/24 21:29:24;;;;;;;55.83;32.87;;;1.70;99.90;;;;;;5127563;27;20238;-76
2022/12/24 21:31:54;;;;;;;51.03;32.67;;;1.80;99.90;;;;;;5128714;27;20202;-76
2022/12/24 21:34:23;;;;;;;52.03;33.07;;;1.90;99.90;;;;;;5128664;27;20184;-74
2022/12/24 21:36:52;;;;;;;58.50;34.33;;;1.90;99.90;;;;;;5128922;27;20244;-84
2022/12/24 21:39:21;;;;;;;58.33;34.70;;;1.70;99.90;;;;;;5128940;27;20656;-83
2022/12/24 21:41:50;;;;;;;61.00;37.03;;;1.70;99.90;;;;;;5120330;27;20199;-82
2022/12/24 21:44:19;;;;;;;80.00;43.23;;;1.80;99.90;;;;;;5114458;28;20207;-80
2022/12/24 21:46:48;;;;;;;104.50;55.57;;;2.00;99.90;;;;;;5114807;28;20192;-73
2022/12/24 21:52:04;;;;;;;125.60;65.57;;;2.00;99.90;;;;;;5034904;28;20244;-84
2022/12/24 21:54:32;;;;;;;140.90;70.70;;;2.10;99.90;;;;;;5051705;28;20690;-75
2022/12/24 21:59:50;;;;;;;141.00;71.00;;;2.00;99.90;;;;;;5050391;28;20201;-73
2022/12/24 22:02:23;;;;;;;136.17;73.67;;;2.00;99.90;;;;;;5034858;28;20209;-80
2022/12/24 22:04:54;;;;;;;139.43;72.67;;;2.10;99.90;;;;;;5051256;28;20194;-85
2022/12/24 22:13:02;;;;;;;140.90;78.27;;;1.90;99.90;;;;;;5050829;28;20289;-79
2022/12/24 22:15:31;;;;;;;152.07;83.57;;;1.90;99.90;;;;;;5049605;28;20239;-84
2022/12/24 22:18:00;;;;;;;127.07;66.57;;;1.90;99.90;;;;;;5050965;28;20692;-79
2022/12/24 22:20:31;;;;;;;134.93;74.30;;;1.90;99.90;;;;;;5051147;28;20198;-81
2022/12/24 22:22:59;;;;;;;117.57;68.17;;;1.70;99.90;;;;;;5050762;28;20733;-82
2022/12/24 22:25:29;;;;;;;120.37;66.33;;;1.80;99.90;;;;;;5075039;22;20248;-83
2022/12/24 22:27:59;;;;;;;117.93;61.23;;;1.80;99.90;;;;;;4990680;28;20713;-81
2022/12/24 22:30:28;;;;;;;105.87;57.27;;;1.70;99.90;;;;;;4990196;28;20238;-81
2022/12/24 22:32:57;;;;;;;102.00;58.60;;;1.80;99.90;;;;;;4990246;28;20705;-75
2022/12/24 22:35:26;;;;;;;104.17;58.87;;;1.70;99.90;;;;;;4990454;28;20300;-80
2022/12/24 22:37:57;;;;;;;95.80;54.20;;;1.70;99.90;;;;;;4991017;28;20200;-80
2022/12/24 22:40:28;;;;;;;99.53;53.93;;;1.80;99.90;;;;;;4951757;29;20224;-80
2022/12/24 22:45:29;;;;;;;93.97;53.07;;;1.90;99.90;;;;;;5150321;27;20959;-74
